Time;durP1;ratioP1;P1;durP2;ratioP2;P2;SDS_P1;SDS_P2;PMS_P1;PMS_P2;Temp;Humidity;BMP_temperature;BMP_pressure;BME280_temperature;BME280_humidity;BME280_pressure;Samples;Min_cycle;Max_cycle;Signal;HPM_P1;HPM_P2
2022/07/17 00:00:00;;;;;;;11.40;7.32;;;;;;;25.17;63.48;99927.72;5083725;28;20090;-68
2022/07/17 00:02:26;;;;;;;11.93;7.50;;;;;;;25.26;63.27;99927.00;5063836;28;20217;-68
2022/07/17 00:04:52;;;;;;;12.00;6.75;;;;;;;25.36;62.06;99926.31;5081608;28;20043;-68
2022/07/17 00:07:17;;;;;;;10.23;7.00;;;;;;;25.46;62.45;99938.06;5082322;28;20147;-68
2022/07/17 00:09:43;;;;;;;9.25;6.75;;;;;;;25.62;61.98;99935.53;5080740;28;20078;-68
2022/07/17 00:12:08;;;;;;;9.15;7.00;;;;;;;25.75;60.41;99935.13;5082080;28;20029;-68
2022/07/17 00:14:34;;;;;;;7.53;5.65;;;;;;;25.88;56.42;99937.44;5080759;28;20032;-68
2022/07/17 00:16:59;;;;;;;11.07;6.10;;;;;;;25.89;56.60;99939.06;5082121;28;20024;-68
2022/07/17 00:19:26;;;;;;;13.32;6.25;;;;;;;25.91;58.38;99931.50;5081050;28;20246;-68
2022/07/17 00:21:51;;;;;;;10.73;5.70;;;;;;;25.81;58.12;99927.88;5079851;28;20028;-68
2022/07/17 00:24:19;;;;;;;8.57;4.90;;;;;;;25.89;57.16;99938.25;5081444;28;20238;-68
2022/07/17 00:26:50;;;;;;;7.45;4.85;;;;;;;25.91;56.37;99931.50;5080418;28;20039;-67
2022/07/17 00:29:16;;;;;;;8.88;4.88;;;;;;;26.07;55.62;99946.84;5081494;28;20314;-68
2022/07/17 00:31:42;;;;;;;6.63;4.50;;;;;;;26.12;54.10;99945.25;5081424;28;20053;-68
2022/07/17 00:34:07;;;;;;;6.93;5.07;;;;;;;26.04;55.54;99952.78;5081292;28;20037;-68
2022/07/17 00:36:33;;;;;;;11.25;5.60;;;;;;;25.96;56.47;99953.25;5081262;28;20587;-68
2022/07/17 00:38:58;;;;;;;8.00;6.22;;;;;;;25.92;57.38;99952.13;5081284;28;20099;-68
2022/07/17 00:41:24;;;;;;;9.20;5.15;;;;;;;25.87;56.58;99941.22;5080722;28;20025;-68
2022/07/17 00:43:49;;;;;;;8.93;4.93;;;;;;;25.69;55.84;99957.88;5080402;28;20047;-68
2022/07/17 00:46:15;;;;;;;8.10;4.82;;;;;;;25.85;55.30;99951.50;5081237;28;20326;-68
2022/07/17 00:48:40;;;;;;;10.32;4.80;;;;;;;26.00;55.52;99958.97;5081710;28;20028;-68
2022/07/17 00:51:07;;;;;;;12.07;5.20;;;;;;;25.95;55.10;99962.44;5080853;28;20032;-68
2022/07/17 00:53:35;;;;;;;10.13;6.20;;;;;;;25.82;57.36;99960.16;5083010;28;20213;-68
2022/07/17 00:56:05;;;;;;;8.85;5.15;;;;;;;25.76;57.18;99970.13;5080977;28;20217;-68
2022/07/17 00:58:34;;;;;;;8.68;5.32;;;;;;;25.77;57.74;99979.09;5080586;28;20081;-68
2022/07/17 01:01:00;;;;;;;8.70;5.10;;;;;;;25.75;56.79;99973.13;5080027;28;20111;-68
2022/07/17 01:03:26;;;;;;;10.00;5.43;;;;;;;25.73;55.39;99970.66;5081521;28;20306;-68
2022/07/17 01:05:52;;;;;;;5.95;4.88;;;;;;;25.74;57.18;99971.47;5081994;28;20027;-68
2022/07/17 01:08:18;;;;;;;10.45;5.13;;;;;;;25.52;57.22;99963.34;5081101;28;20117;-68
2022/07/17 01:10:44;;;;;;;8.15;5.32;;;;;;;25.43;56.72;99975.72;5080884;28;20027;-68
2022/07/17 01:13:09;;;;;;;8.60;5.53;;;;;;;25.21;58.97;99969.50;5080832;28;20094;-68
2022/07/17 01:15:39;;;;;;;9.27;5.65;;;;;;;24.78;61.65;99968.34;5079962;28;20321;-68
2022/07/17 01:18:10;;;;;;;10.85;6.20;;;;;;;24.38;61.93;99961.25;5081996;28;20043;-68
2022/07/17 01:20:39;;;;;;;7.63;6.80;;;;;;;24.22;63.40;99966.63;5080426;28;20040;-68
2022/07/17 01:23:05;;;;;;;7.47;6.18;;;;;;;24.07;62.29;99973.44;5079453;28;20027;-68
2022/07/17 01:25:31;;;;;;;9.27;6.35;;;;;;;24.15;63.02;99978.44;5059779;28;20041;-68
2022/07/17 01:27:56;;;;;;;8.00;6.47;;;;;;;24.35;62.21;99971.75;5060127;28;20033;-68
2022/07/17 01:30:22;;;;;;;11.82;6.32;;;;;;;24.51;61.66;99985.28;5066936;28;20207;-68
2022/07/17 01:32:47;;;;;;;8.30;6.28;;;;;;;24.69;61.76;99972.53;5077305;28;20295;-68
2022/07/17 01:35:14;;;;;;;7.53;5.28;;;;;;;24.71;62.71;99986.66;5065424;28;20059;-67
2022/07/17 01:37:41;;;;;;;7.63;5.90;;;;;;;24.78;62.44;99990.00;5065321;28;20041;-68
2022/07/17 01:40:08;;;;;;;9.13;5.18;;;;;;;24.78;61.55;99990.00;5066029;28;20100;-68
2022/07/17 01:42:34;;;;;;;9.77;5.90;;;;;;;24.86;61.60;99992.28;5065333;28;20401;-69
2022/07/17 01:45:00;;;;;;;6.63;5.78;;;;;;;24.93;61.75;99990.22;5063976;28;20056;-68
2022/07/17 01:47:25;;;;;;;9.05;5.82;;;;;;;24.89;61.33;99986.34;5064420;28;20032;-68
2022/07/17 01:49:56;;;;;;;7.80;5.35;;;;;;;24.99;61.74;99996.59;5068154;28;20253;-68
2022/07/17 01:52:23;;;;;;;6.25;5.30;;;;;;;24.96;61.38;99995.13;5065040;28;20434;-68
2022/07/17 01:54:49;;;;;;;6.97;5.63;;;;;;;24.96;60.31;99986.19;5063809;28;20029;-68
2022/07/17 01:57:15;;;;;;;11.68;5.10;;;;;;;25.07;57.04;99994.25;5064585;28;20032;-68
2022/07/17 01:59:41;;;;;;;6.22;5.20;;;;;;;25.17;57.32;99993.56;5064442;28;20083;-69
2022/07/17 02:02:08;;;;;;;8.50;5.00;;;;;;;25.18;58.26;99989.78;5064325;28;20230;-68
2022/07/17 02:04:36;;;;;;;7.95;5.32;;;;;;;25.26;56.44;99991.25;5064416;28;20037;-68
2022/07/17 02:07:02;;;;;;;7.78;4.50;;;;;;;25.26;56.44;99977.69;5063999;28;20094;-68
2022/07/17 02:09:28;;;;;;;5.63;4.22;;;;;;;25.27;55.66;99984.75;5066972;28;20033;-68
2022/07/17 02:11:53;;;;;;;8.85;4.60;;;;;;;25.31;53.85;99983.16;5063606;28;20033;-68
2022/07/17 02:14:19;;;;;;;5.18;3.75;;;;;;;25.29;52.68;99977.19;5063337;28;20034;-68
2022/07/17 02:16:45;;;;;;;5.00;4.10;;;;;;;25.29;52.77;99985.31;5065327;28;20044;-68
2022/07/17 02:19:11;;;;;;;9.00;4.13;;;;;;;25.22;53.30;99990.09;5065704;28;20097;-68
2022/07/17 02:21:37;;;;;;;5.10;3.95;;;;;;;25.12;52.69;99985.38;5063335;28;20037;-68
2022/07/17 02:24:02;;;;;;;4.70;4.18;;;;;;;25.23;52.91;99983.59;5064816;28;20063;-68
2022/07/17 02:26:27;;;;;;;6.97;4.57;;;;;;;25.13;52.84;99990.53;5083836;28;20032;-68
2022/07/17 02:28:54;;;;;;;6.55;4.43;;;;;;;24.97;53.13;99980.56;5084546;28;20029;-68
2022/07/17 02:31:19;;;;;;;7.57;4.10;;;;;;;24.93;53.02;99994.81;5082339;28;20035;-68
2022/07/17 02:33:45;;;;;;;6.30;4.20;;;;;;;24.84;53.30;100000.66;5083990;28;20029;-68
2022/07/17 02:36:10;;;;;;;8.25;4.18;;;;;;;24.88;54.13;99995.56;5066729;28;20314;-68
2022/07/17 02:38:36;;;;;;;6.60;4.60;;;;;;;24.93;54.21;99994.81;5084285;28;20327;-68
2022/07/17 02:41:01;;;;;;;5.85;4.13;;;;;;;24.86;54.13;99997.69;5082147;28;20032;-68
2022/07/17 02:43:27;;;;;;;10.60;4.70;;;;;;;24.84;54.55;100007.97;5083338;28;20029;-68
2022/07/17 02:45:52;;;;;;;5.32;4.65;;;;;;;24.63;54.99;99997.91;5083221;28;20272;-68
2022/07/17 02:48:17;;;;;;;7.93;4.63;;;;;;;24.47;55.85;100007.66;5081922;28;20028;-68
2022/07/17 02:50:43;;;;;;;9.80;4.55;;;;;;;24.41;56.24;100000.53;5084141;28;20032;-68
2022/07/17 02:53:08;;;;;;;7.43;4.78;;;;;;;24.29;56.64;100005.22;5083235;28;20044;-69
2022/07/17 02:55:34;;;;;;;8.32;6.15;;;;;;;24.49;56.45;100013.66;5082654;28;20033;-68
2022/07/17 02:57:59;;;;;;;10.13;4.93;;;;;;;24.52;56.38;100018.59;5083879;28;20024;-68
2022/07/17 03:00:26;;;;;;;10.63;4.82;;;;;;;24.61;56.85;100018.97;5082735;28;20036;-68
2022/07/17 03:02:53;;;;;;;10.48;4.85;;;;;;;24.63;57.44;100016.84;5063927;28;20352;-68
2022/07/17 03:05:19;;;;;;;7.43;5.00;;;;;;;24.56;57.41;100017.03;5085931;28;20039;-68
2022/07/17 03:07:45;;;;;;;8.38;5.53;;;;;;;24.57;56.44;100015.94;5082914;28;20044;-68
2022/07/17 03:10:11;;;;;;;6.95;5.40;;;;;;;24.56;57.25;100010.78;5082858;28;20059;-68
2022/07/17 03:12:36;;;;;;;17.58;5.88;;;;;;;24.60;59.14;100012.75;5084167;28;20055;-68
2022/07/17 03:15:04;;;;;;;6.40;5.05;;;;;;;24.58;59.66;100020.28;5082009;28;20059;-68
2022/07/17 03:17:29;;;;;;;10.02;5.40;;;;;;;24.59;60.08;100019.22;5065869;28;20035;-68
2022/07/17 03:19:55;;;;;;;8.23;5.40;;;;;;;24.51;59.69;100020.47;5082626;28;20322;-68
2022/07/17 03:22:20;;;;;;;10.85;5.50;;;;;;;24.48;60.27;100022.84;5081646;28;20305;-68
2022/07/17 03:24:46;;;;;;;11.82;5.53;;;;;;;24.42;60.16;100032.78;5082860;28;20280;-68
2022/07/17 03:27:11;;;;;;;8.57;5.60;;;;;;;24.30;60.58;100025.78;5081782;28;20028;-68
2022/07/17 03:29:36;;;;;;;11.23;5.63;;;;;;;24.33;61.01;100028.00;5066024;28;20041;-68
2022/07/17 03:32:02;;;;;;;14.13;5.85;;;;;;;24.41;60.71;100016.78;5083425;28;20042;-68
2022/07/17 03:34:28;;;;;;;14.63;5.85;;;;;;;24.48;61.30;100018.25;5082127;28;20036;-68
2022/07/17 03:36:53;;;;;;;7.38;5.47;;;;;;;24.62;61.64;100026.88;5081208;28;20020;-68
2022/07/17 03:39:19;;;;;;;11.95;5.65;;;;;;;24.62;61.18;100023.34;5066600;28;20230;-68
2022/07/17 03:41:44;;;;;;;6.68;5.25;;;;;;;24.69;60.66;100034.81;5081411;28;20203;-68
2022/07/17 03:44:10;;;;;;;9.35;5.93;;;;;;;24.62;61.96;100042.28;5083148;28;20267;-68
2022/07/17 03:46:35;;;;;;;9.02;5.78;;;;;;;24.58;62.38;100046.56;5081527;28;20180;-69
2022/07/17 03:49:01;;;;;;;8.45;6.32;;;;;;;24.54;61.65;100029.97;5082154;28;20048;-68
2022/07/17 03:51:27;;;;;;;12.05;6.43;;;;;;;24.52;62.47;100032.94;5064313;28;20065;-68
2022/07/17 03:53:52;;;;;;;9.05;6.32;;;;;;;24.49;61.94;100043.44;5081044;28;20040;-68
2022/07/17 03:56:18;;;;;;;9.05;6.35;;;;;;;24.52;61.57;100051.06;5084151;28;20040;-68
2022/07/17 03:58:44;;;;;;;8.70;6.82;;;;;;;24.54;61.76;100051.63;5082440;28;20032;-68
2022/07/17 04:01:10;;;;;;;8.00;5.70;;;;;;;24.61;60.59;100049.59;5083505;28;20183;-68
2022/07/17 04:03:35;;;;;;;13.70;6.22;;;;;;;24.63;60.59;100050.16;5083675;28;20296;-68
2022/07/17 04:06:01;;;;;;;9.20;5.35;;;;;;;24.49;60.99;100057.78;5080706;28;20035;-68
2022/07/17 04:08:26;;;;;;;13.50;5.53;;;;;;;24.45;60.63;100043.09;5084768;28;20186;-68
2022/07/17 04:10:52;;;;;;;9.32;5.85;;;;;;;24.49;60.70;100056.97;5083049;28;20032;-68
2022/07/17 04:13:17;;;;;;;10.02;5.88;;;;;;;24.61;60.83;100071.25;5063490;28;20028;-68
2022/07/17 04:15:49;;;;;;;9.45;6.05;;;;;;;24.49;61.54;100068.63;5081011;28;20222;-68
2022/07/17 04:18:21;;;;;;;9.23;6.18;;;;;;;24.43;61.86;100071.47;5083203;28;20034;-68
2022/07/17 04:20:48;;;;;;;13.50;6.38;;;;;;;24.53;61.52;100074.38;5083397;28;20346;-68
2022/07/17 04:23:14;;;;;;;8.27;5.68;;;;;;;24.70;60.91;100080.59;5081820;28;20104;-68
2022/07/17 04:25:40;;;;;;;8.48;5.65;;;;;;;24.86;60.11;100068.13;5080797;28;20063;-68
2022/07/17 04:28:06;;;;;;;9.82;5.00;;;;;;;24.98;59.08;100081.63;5081121;28;20527;-68
2022/07/17 04:30:32;;;;;;;11.90;5.22;;;;;;;25.23;57.99;100073.88;5089092;28;20043;-68
2022/07/17 04:32:57;;;;;;;9.15;4.60;;;;;;;25.39;56.36;100075.72;5101279;28;20028;-68
2022/07/17 04:35:23;;;;;;;7.95;5.10;;;;;;;25.18;56.85;100070.25;5093241;28;20024;-68
2022/07/17 04:37:48;;;;;;;9.52;4.07;;;;;;;25.45;56.77;100082.00;5081845;28;20040;-68
2022/07/17 04:40:14;;;;;;;8.73;3.95;;;;;;;25.65;55.26;100079.59;5081876;28;20040;-68
2022/07/17 04:42:39;;;;;;;6.82;3.70;;;;;;;25.81;55.45;100083.31;5081151;28;20033;-68
2022/07/17 04:45:06;;;;;;;5.97;3.92;;;;;;;25.85;54.58;100087.16;5082277;28;20039;-68
2022/07/17 04:47:34;;;;;;;13.13;4.07;;;;;;;25.92;54.68;100093.19;5080307;28;20027;-68
2022/07/17 04:49:59;;;;;;;6.30;4.05;;;;;;;26.17;53.80;100081.81;5081448;28;20036;-68
2022/07/17 04:52:25;;;;;;;7.55;3.80;;;;;;;26.48;53.30;100087.56;5080783;28;20033;-68
2022/07/17 04:54:50;;;;;;;6.95;3.83;;;;;;;26.72;52.23;100089.69;5062656;28;20035;-68
2022/07/17 04:57:15;;;;;;;6.13;3.60;;;;;;;26.97;50.76;100090.94;5080155;28;20028;-68
2022/07/17 04:59:41;;;;;;;8.20;3.92;;;;;;;27.00;50.03;100094.00;5063091;28;20029;-68
2022/07/17 05:02:07;;;;;;;5.13;3.80;;;;;;;27.18;49.71;100090.06;5080731;28;20074;-68
2022/07/17 05:04:33;;;;;;;7.35;3.80;;;;;;;27.08;49.25;100094.59;5079296;28;20045;-68
2022/07/17 05:06:58;;;;;;;10.57;4.97;;;;;;;27.29;49.10;100099.09;5081170;28;20032;-69
2022/07/17 05:09:24;;;;;;;8.25;3.58;;;;;;;27.57;47.41;100097.88;5084157;28;20494;-69
2022/07/17 05:11:49;;;;;;;8.43;3.53;;;;;;;27.62;46.83;100089.75;5080679;28;20028;-68
2022/07/17 05:14:14;;;;;;;7.35;3.50;;;;;;;27.84;46.00;100101.28;5064192;28;20317;-68
2022/07/17 05:16:40;;;;;;;9.48;3.78;;;;;;;27.88;45.10;100101.56;5080495;28;20272;-68
2022/07/17 05:19:05;;;;;;;6.50;4.80;;;;;;;28.04;45.03;100113.31;5082178;28;20207;-69
2022/07/17 05:21:31;;;;;;;14.23;4.82;;;;;;;28.13;44.76;100115.25;5080117;28;21122;-69
2022/07/17 05:23:57;;;;;;;8.18;4.20;;;;;;;28.44;44.67;100112.63;5080197;28;20036;-68
2022/07/17 05:26:23;;;;;;;5.60;3.67;;;;;;;28.90;43.76;100124.38;5079718;28;20032;-68
2022/07/17 05:28:49;;;;;;;9.10;3.85;;;;;;;28.96;42.80;100115.09;5083838;28;20052;-68
2022/07/17 05:31:14;;;;;;;8.77;3.72;;;;;;;29.27;41.63;100118.63;5080813;28;20036;-68
2022/07/17 05:33:40;;;;;;;11.55;3.53;;;;;;;29.25;40.75;100123.53;5063705;28;20203;-68
2022/07/17 05:36:05;;;;;;;9.93;4.75;;;;;;;29.32;40.99;100118.63;5080067;28;20025;-68
2022/07/17 05:38:31;;;;;;;5.53;3.13;;;;;;;29.18;40.96;100126.56;5079777;28;20062;-68
2022/07/17 05:40:56;;;;;;;4.85;3.38;;;;;;;29.15;41.27;100118.13;5080727;28;20020;-68
2022/07/17 05:43:22;;;;;;;8.30;3.28;;;;;;;29.35;40.82;100137.16;5082153;28;20035;-68
2022/07/17 05:45:47;;;;;;;7.70;3.30;;;;;;;29.27;40.80;100137.72;5080476;28;20032;-69
2022/07/17 05:48:13;;;;;;;6.53;3.35;;;;;;;29.39;40.39;100126.50;5081801;28;20024;-68
2022/07/17 05:50:38;;;;;;;5.38;2.97;;;;;;;29.76;39.94;100129.69;5081110;28;20356;-68
2022/07/17 05:53:04;;;;;;;7.47;2.78;;;;;;;29.74;38.89;100129.16;5080926;28;20032;-68
2022/07/17 05:55:29;;;;;;;5.60;3.55;;;;;;;29.70;39.09;100121.81;5081041;28;20102;-69
2022/07/17 05:57:54;;;;;;;6.90;3.10;;;;;;;29.90;39.65;100118.97;5080203;28;20020;-69
2022/07/17 06:00:20;;;;;;;5.47;3.80;;;;;;;30.02;38.91;100118.69;5080973;28;20082;-69
2022/07/17 06:02:46;;;;;;;7.65;3.30;;;;;;;29.98;38.63;100117.56;5062415;28;20032;-68
2022/07/17 06:05:11;;;;;;;9.07;4.20;;;;;;;30.09;37.59;100130.09;5079080;28;20248;-69
2022/07/17 06:07:37;;;;;;;7.47;3.50;;;;;;;30.08;38.14;100126.56;5081600;28;20032;-69
2022/07/17 06:10:04;;;;;;;6.30;4.00;;;;;;;30.33;38.11;100117.41;5080171;28;20351;-69
2022/07/17 06:12:29;;;;;;;5.53;2.92;;;;;;;30.46;36.87;100124.16;5079925;28;20237;-68
2022/07/17 06:14:55;;;;;;;8.18;3.22;;;;;;;30.34;36.50;100116.31;5063428;28;20061;-68
2022/07/17 06:17:20;;;;;;;8.77;2.53;;;;;;;30.40;35.42;100108.91;5085248;28;20312;-69
2022/07/17 06:19:46;;;;;;;6.60;2.53;;;;;;;30.46;34.24;100100.38;5065885;28;20226;-68
2022/07/17 06:22:11;;;;;;;3.55;2.22;;;;;;;30.59;34.19;100114.53;5086095;28;20040;-68
2022/07/17 06:24:36;;;;;;;8.23;2.42;;;;;;;30.83;33.77;100109.97;5065363;28;20052;-69
2022/07/17 06:27:02;;;;;;;5.72;3.35;;;;;;;30.85;34.07;100105.00;5083883;28;20024;-69
2022/07/17 06:29:27;;;;;;;5.32;2.40;;;;;;;30.99;33.88;100116.09;5066029;28;20532;-69
2022/07/17 06:31:53;;;;;;;5.43;2.45;;;;;;;31.21;33.39;100102.81;5083555;28;20032;-68
2022/07/17 06:34:18;;;;;;;3.42;2.35;;;;;;;31.40;32.67;100102.88;5083343;28;20040;-68
2022/07/17 06:36:44;;;;;;;14.95;2.95;;;;;;;31.73;32.35;100104.69;5083837;28;20097;-69
2022/07/17 06:39:09;;;;;;;5.45;2.35;;;;;;;31.93;31.57;100102.78;5083966;28;20044;-69
2022/07/17 06:41:35;;;;;;;5.47;2.70;;;;;;;31.93;31.32;100105.53;5082344;28;20073;-68
2022/07/17 06:44:00;;;;;;;4.82;2.20;;;;;;;31.89;31.00;100099.00;5084022;28;20210;-68
2022/07/17 06:46:26;;;;;;;5.70;2.55;;;;;;;32.13;31.23;100102.50;5083395;28;20314;-68
2022/07/17 06:48:51;;;;;;;5.32;2.30;;;;;;;32.39;30.83;100103.00;5084193;28;20050;-69
2022/07/17 06:51:18;;;;;;;4.55;3.25;;;;;;;32.45;30.71;100106.47;5084667;28;20036;-68
2022/07/17 06:53:43;;;;;;;3.90;2.55;;;;;;;32.36;30.29;100109.88;5083627;28;20253;-68
2022/07/17 06:56:09;;;;;;;6.22;2.47;;;;;;;32.45;30.27;100111.94;5083605;28;20496;-69
2022/07/17 06:58:34;;;;;;;6.45;2.20;;;;;;;32.46;30.49;100106.16;5065585;28;20012;-68
2022/07/17 07:01:00;;;;;;;6.90;2.45;;;;;;;32.58;30.15;100106.53;5085674;28;20222;-69
2022/07/17 07:03:26;;;;;;;4.03;2.05;;;;;;;32.69;29.94;100107.97;5084880;28;20036;-68
2022/07/17 07:05:51;;;;;;;4.35;2.30;;;;;;;33.03;29.11;100106.06;5081804;28;20035;-69
2022/07/17 07:08:17;;;;;;;7.32;2.60;;;;;;;33.04;29.18;100114.00;5084062;28;20102;-69
2022/07/17 07:10:44;;;;;;;3.35;2.10;;;;;;;33.28;28.14;100111.88;5084175;28;20032;-69
2022/07/17 07:13:09;;;;;;;4.07;2.10;;;;;;;33.46;27.79;100115.72;5083416;28;20036;-69
2022/07/17 07:15:35;;;;;;;3.40;2.08;;;;;;;33.76;27.90;100113.47;5083569;28;20226;-69
2022/07/17 07:18:00;;;;;;;5.88;2.00;;;;;;;33.49;28.15;100111.53;5063424;28;20031;-69
2022/07/17 07:20:26;;;;;;;3.88;2.17;;;;;;;33.54;27.38;100111.44;5082814;28;20028;-68
2022/07/17 07:22:51;;;;;;;8.30;2.40;;;;;;;33.65;27.86;100107.38;5083171;28;20032;-69
2022/07/17 07:25:17;;;;;;;6.03;2.53;;;;;;;33.64;27.79;100105.75;5082324;28;20330;-69
2022/07/17 07:27:42;;;;;;;6.60;2.10;;;;;;;33.57;27.50;100110.84;5082131;28;20074;-69
2022/07/17 07:30:11;;;;;;;3.40;2.15;;;;;;;33.69;27.02;100097.41;5082853;28;20328;-69
2022/07/17 07:32:41;;;;;;;4.40;1.92;;;;;;;33.82;27.21;100109.50;5086511;28;20279;-69
2022/07/17 07:35:07;;;;;;;4.40;1.83;;;;;;;33.98;26.97;100108.06;5082509;28;20043;-69
2022/07/17 07:37:33;;;;;;;2.88;1.65;;;;;;;34.11;25.53;100107.22;5083502;28;20051;-69
2022/07/17 07:39:59;;;;;;;6.93;2.25;;;;;;;33.75;26.00;100114.59;5083117;28;20190;-69
2022/07/17 07:42:25;;;;;;;5.30;2.30;;;;;;;34.09;25.72;100100.41;5082887;28;20098;-69
2022/07/17 07:44:51;;;;;;;6.10;2.40;;;;;;;34.08;25.15;100082.28;5081755;28;20041;-69
2022/07/17 07:47:17;;;;;;;5.65;2.30;;;;;;;34.67;25.56;100103.19;5082784;28;20063;-69
2022/07/17 07:49:43;;;;;;;4.38;2.17;;;;;;;34.57;24.71;100106.19;5082096;28;20044;-69
2022/07/17 07:52:08;;;;;;;4.82;1.90;;;;;;;34.58;25.31;100113.31;5081777;28;20047;-69
2022/07/17 07:54:34;;;;;;;3.92;2.10;;;;;;;34.19;25.86;100113.91;5082025;28;20055;-69
2022/07/17 07:57:00;;;;;;;4.28;2.28;;;;;;;34.13;25.60;100124.19;5082585;28;20040;-69
2022/07/17 07:59:25;;;;;;;4.03;2.22;;;;;;;34.49;26.71;100128.94;5083278;28;20028;-69
2022/07/17 08:01:52;;;;;;;5.75;2.17;;;;;;;34.77;25.26;100116.66;5082150;28;20234;-69
2022/07/17 08:04:17;;;;;;;3.15;2.03;;;;;;;34.79;25.31;100125.44;5082375;28;20040;-69
2022/07/17 08:06:43;;;;;;;4.97;2.40;;;;;;;34.71;24.56;100125.38;5083598;28;20048;-69
2022/07/17 08:09:08;;;;;;;7.82;2.20;;;;;;;34.79;24.94;100121.84;5064227;28;20272;-69
2022/07/17 08:11:34;;;;;;;3.53;1.67;;;;;;;34.62;24.74;100124.50;5082496;28;20060;-69
2022/07/17 08:13:59;;;;;;;3.85;1.83;;;;;;;34.54;24.88;100124.13;5081478;28;20029;-69
2022/07/17 08:16:25;;;;;;;8.23;2.03;;;;;;;34.82;24.47;100127.56;5081277;28;20040;-68
2022/07/17 08:18:50;;;;;;;4.13;2.63;;;;;;;34.58;24.12;100129.81;5081365;28;20077;-68
2022/07/17 08:21:16;;;;;;;5.13;2.20;;;;;;;34.66;24.59;100129.06;5081439;28;20142;-69
2022/07/17 08:23:42;;;;;;;8.65;3.65;;;;;;;34.68;24.03;100129.56;5080567;28;20040;-69
2022/07/17 08:26:08;;;;;;;4.25;1.98;;;;;;;34.82;24.05;100127.56;5081497;28;20048;-69
2022/07/17 08:28:33;;;;;;;5.68;2.70;;;;;;;34.54;23.99;100132.38;5081909;28;20048;-69
2022/07/17 08:31:00;;;;;;;4.63;1.83;;;;;;;34.75;24.30;100118.94;5080212;28;20156;-69
2022/07/17 08:33:26;;;;;;;2.60;1.63;;;;;;;34.74;23.77;100124.75;5081956;28;20017;-69
2022/07/17 08:35:51;;;;;;;6.60;1.60;;;;;;;35.10;23.52;100122.72;5080750;28;20356;-69
2022/07/17 08:38:17;;;;;;;2.50;1.73;;;;;;;35.15;23.15;100133.59;5083797;28;20039;-69
2022/07/17 08:40:43;;;;;;;5.25;2.13;;;;;;;35.30;22.63;100132.38;5080698;28;20257;-69
2022/07/17 08:43:09;;;;;;;6.18;2.90;;;;;;;34.97;22.64;100093.34;5081578;28;20028;-69
2022/07/17 08:45:38;;;;;;;2.80;2.10;;;;;;;34.98;22.85;100128.00;5081346;28;20258;-69
2022/07/17 08:48:05;;;;;;;4.13;2.00;;;;;;;35.30;22.17;100121.34;5063510;28;20017;-69
2022/07/17 08:50:35;;;;;;;3.72;1.92;;;;;;;35.67;21.47;100120.09;5081124;28;20070;-69
2022/07/17 08:53:01;;;;;;;3.15;1.95;;;;;;;35.86;21.63;100122.59;5063645;28;20027;-69
2022/07/17 08:55:27;;;;;;;2.30;1.83;;;;;;;35.74;21.16;100117.66;5081386;28;20361;-69
2022/07/17 08:57:52;;;;;;;1.98;1.67;;;;;;;35.59;21.49;100104.34;5081227;28;20024;-69
2022/07/17 09:00:20;;;;;;;3.20;1.98;;;;;;;35.48;21.65;100112.09;5080572;28;20063;-69
2022/07/17 09:02:54;;;;;;;6.13;2.15;;;;;;;34.91;20.13;100113.88;5064267;28;20016;-69
2022/07/17 09:05:22;;;;;;;3.85;1.85;;;;;;;34.77;18.64;100113.09;5079944;28;20047;-69
2022/07/17 09:07:47;;;;;;;4.32;2.15;;;;;;;34.63;19.43;100112.38;5081910;28;20024;-69
2022/07/17 09:10:13;;;;;;;4.22;1.60;;;;;;;34.62;18.65;100113.50;5063560;28;20035;-69
2022/07/17 09:12:39;;;;;;;3.60;1.80;;;;;;;34.82;19.12;100119.31;5083222;28;20036;-69
2022/07/17 09:15:18;;;;;;;6.25;1.83;;;;;;;34.27;18.68;100116.72;5082672;28;20049;-69
2022/07/17 09:17:52;;;;;;;3.78;1.58;;;;;;;34.45;18.69;100126.00;5080817;28;20127;-69
2022/07/17 09:20:19;;;;;;;;;;;;;;;34.38;18.44;100122.06;5062155;28;20032;-69
2022/07/17 09:22:54;;;;;;;7.35;1.92;;;;;;;34.55;18.75;100120.25;5084838;28;19979;-68
2022/07/17 09:25:31;;;;;;;7.72;1.85;;;;;;;34.92;18.30;100117.44;5081624;28;20043;-69
2022/07/17 09:27:57;;;;;;;2.88;1.70;;;;;;;34.76;19.31;100119.75;5080628;28;20013;-69
2022/07/17 09:30:22;;;;;;;2.10;1.80;;;;;;;34.72;18.47;100118.75;5079824;28;20342;-68
2022/07/17 09:32:50;;;;;;;5.20;2.00;;;;;;;34.45;18.43;100125.19;5079943;28;20032;-69
2022/07/17 09:35:16;;;;;;;3.03;2.40;;;;;;;34.53;19.22;100118.94;5064524;28;20070;-68
2022/07/17 09:37:42;;;;;;;3.25;1.45;;;;;;;34.19;18.42;100116.66;5080413;28;20032;-69
2022/07/17 09:41:09;;;;;;;5.25;2.00;;;;;;;34.15;19.35;100119.22;5080627;28;20070;-69
2022/07/17 09:42:57;;;;;;;2.13;1.50;;;;;;;34.08;19.13;100124.31;5080190;28;20086;-69
2022/07/17 09:45:22;;;;;;;4.00;1.58;;;;;;;33.93;18.48;100122.72;5081757;28;20040;-68
2022/07/17 09:47:48;;;;;;;4.38;1.85;;;;;;;33.69;18.79;100124.84;5080148;28;20032;-68
2022/07/17 09:50:16;;;;;;;3.42;1.65;;;;;;;33.72;20.06;100117.94;5081444;28;20028;-68
2022/07/17 09:52:43;;;;;;;3.53;1.80;;;;;;;33.78;18.58;100112.03;5084860;28;20020;-68
2022/07/17 09:55:08;;;;;;;4.82;1.70;;;;;;;33.67;19.51;100101.56;5083828;28;20032;-68
2022/07/17 09:57:34;;;;;;;3.35;1.92;;;;;;;33.67;19.00;100118.03;5087386;28;20035;-68
2022/07/17 10:00:06;;;;;;;3.35;1.70;;;;;;;33.66;19.54;100125.47;5083814;28;20036;-69
2022/07/17 10:02:33;;;;;;;1.73;1.63;;;;;;;33.48;19.28;100115.41;5085430;28;20036;-68
2022/07/17 10:04:59;;;;;;;4.40;1.60;;;;;;;33.67;18.80;100124.34;5085178;28;20077;-68
2022/07/17 10:07:25;;;;;;;3.17;1.50;;;;;;;33.49;18.89;100122.53;5084507;28;20088;-68
2022/07/17 10:09:51;;;;;;;2.45;1.60;;;;;;;33.58;18.88;100116.00;5084047;28;20344;-68
2022/07/17 10:12:19;;;;;;;4.25;1.85;;;;;;;33.63;19.16;100113.16;5085591;28;20120;-69
2022/07/17 10:14:47;;;;;;;6.45;1.90;;;;;;;33.69;18.39;100104.81;5083534;28;20029;-68
2022/07/17 10:17:18;;;;;;;4.93;1.92;;;;;;;33.70;18.34;100111.94;5083171;28;20056;-68
2022/07/17 10:19:55;;;;;;;5.05;1.73;;;;;;;33.79;18.32;100112.84;5083821;28;20242;-68
2022/07/17 10:22:22;;;;;;;5.28;1.67;;;;;;;33.51;18.06;100112.06;5087934;28;20037;-68
2022/07/17 10:24:57;;;;;;;6.90;2.05;;;;;;;33.71;18.28;100099.84;5083915;28;20273;-68
2022/07/17 10:27:28;;;;;;;11.32;3.97;;;;;;;33.85;19.01;100106.97;5083141;28;20347;-68
2022/07/17 10:30:09;;;;;;;12.50;8.20;;;;;;;33.69;18.67;100094.66;5083770;28;20052;-68
2022/07/17 10:32:36;;;;;;;3.83;1.80;;;;;;;33.78;19.27;100095.56;5083453;28;20131;-68
2022/07/17 10:35:06;;;;;;;2.30;1.75;;;;;;;33.82;18.53;100087.53;5083034;28;20060;-68
2022/07/17 10:37:33;;;;;;;2.63;1.42;;;;;;;33.61;19.17;100081.63;5084999;28;20035;-68
2022/07/17 10:40:10;;;;;;;3.33;1.67;;;;;;;33.72;17.94;100083.06;5084715;28;20368;-68
2022/07/17 10:42:45;;;;;;;10.07;2.00;;;;;;;33.92;17.33;100084.56;5088395;28;20034;-68
2022/07/17 10:45:25;;;;;;;1.52;1.40;;;;;;;33.60;18.59;100077.28;5103026;28;20059;-68
2022/07/17 10:47:59;;;;;;;5.90;2.05;;;;;;;33.69;18.67;100077.34;5085561;28;20037;-68
2022/07/17 10:50:35;;;;;;;7.28;2.15;;;;;;;33.75;19.00;100090.66;5083328;28;20043;-68
2022/07/17 10:53:12;;;;;;;3.53;1.80;;;;;;;33.70;18.72;100076.25;5084731;28;20119;-68
2022/07/17 10:55:43;;;;;;;3.40;1.70;;;;;;;33.65;18.69;100071.66;5089203;28;20063;-68
2022/07/17 10:58:20;;;;;;;11.05;6.50;;;;;;;33.63;19.99;100066.47;5083691;28;20259;-68
2022/07/17 11:01:05;;;;;;;2.40;1.45;;;;;;;33.66;18.28;100059.56;5082685;28;20035;-68
2022/07/17 11:03:36;;;;;;;2.00;1.40;;;;;;;33.74;18.44;100064.34;5084342;28;20032;-68
2022/07/17 11:06:17;;;;;;;6.22;2.22;;;;;;;33.37;18.07;100031.63;5085613;28;20253;-68
2022/07/17 11:09:03;;;;;;;2.60;1.60;;;;;;;33.49;19.31;100064.88;5083601;28;20078;-68
2022/07/17 11:11:50;;;;;;;2.17;1.50;;;;;;;33.53;18.37;100049.41;5083366;28;20035;-68
2022/07/17 11:14:24;;;;;;;6.43;2.15;;;;;;;33.58;19.03;100060.28;5082999;28;20184;-68
2022/07/17 11:16:56;;;;;;;2.78;1.60;;;;;;;33.63;18.53;100055.50;5083792;28;20052;-68
2022/07/17 11:19:24;;;;;;;5.60;1.70;;;;;;;33.54;19.27;100051.84;5084442;28;20075;-68
2022/07/17 11:21:51;;;;;;;4.03;2.42;;;;;;;33.65;19.13;100046.94;5083070;28;20055;-69
2022/07/17 11:24:17;;;;;;;4.43;1.30;;;;;;;33.71;19.45;100042.16;5082323;28;20059;-68